Elgood, West Virginia
Current Conditions -  °F | °C
As of 2:52 AM on Tuesday 21 Oct 2014 (Local Time) from KBLF Reporting Station
Broken Clouds Broken Clouds  
Wind Chill: 52°   Ceiling: 2200
Heat Index: 52°   Visibility: 10mi
Dew Point: 44°   Wind: 5mph
Humidity: 74%   Direction: 240°WSW
Pressure: 29.97"   Gusts: NA
Location:  37.3649°N, 81.0293°W
Report Text: KBLF 210652Z AUTO 24004KT 10SM BKN022 BKN033 11/07 A2997 RMK AO2 SLP131 T01110067
Loading
Personal Weather Stations






























Interactive Weather Map
Tropical Storm Tracking
New forecast layout! Learn more

10-Day Weather Forecast

Advertisements
Track Severe Weather on mobile